createdAt,value
2022-08-29T00:00:18.045Z,7.3
2022-08-29T00:02:15.077Z,7.4
2022-08-29T00:04:15.514Z,8.3
2022-08-29T00:06:15.811Z,7
2022-08-29T00:08:16.727Z,8
2022-08-29T00:10:16.654Z,7.4
2022-08-29T00:12:16.982Z,7.8
2022-08-29T00:14:23.292Z,7.1
2022-08-29T00:16:17.720Z,7.1
2022-08-29T00:18:20.321Z,7.3
2022-08-29T00:20:21.519Z,7
2022-08-29T00:22:18.712Z,7.1
2022-08-29T00:24:19.466Z,7.2
2022-08-29T00:26:19.505Z,7.3
2022-08-29T00:28:19.878Z,7.4
2022-08-29T00:30:21.884Z,7.2
2022-08-29T00:32:20.550Z,7.3
2022-08-29T00:34:20.913Z,7.5
2022-08-29T00:36:22.577Z,7.1
2022-08-29T00:38:22.137Z,7.1
2022-08-29T00:40:26.582Z,7.1
2022-08-29T00:42:22.377Z,7.7
2022-08-29T00:44:22.704Z,7.8
2022-08-29T00:46:42.808Z,7.3
2022-08-29T00:48:23.610Z,8
2022-08-29T00:50:27.754Z,7.1
2022-08-29T00:52:31.153Z,7.6
2022-08-29T00:54:25.716Z,7.7
2022-08-29T00:56:25.783Z,7.8
2022-08-29T00:58:30.285Z,7.8
2022-08-29T01:00:26.648Z,7.4
2022-08-29T01:02:26.031Z,8
2022-08-29T01:04:26.367Z,8.6
2022-08-29T01:06:27.901Z,7.8
2022-08-29T01:08:27.187Z,7.5
2022-08-29T01:10:27.662Z,8.4
2022-08-29T01:12:27.770Z,7.6
2022-08-29T01:14:28.156Z,8.3
2022-08-29T01:16:29.797Z,7.8
2022-08-29T01:18:31.933Z,8.5
2022-08-29T01:20:39.317Z,7.8
2022-08-29T01:22:46.027Z,7.9
2022-08-29T01:24:37.607Z,8.4
2022-08-29T01:26:31.305Z,8.2
2022-08-29T01:28:33.345Z,8.6
2022-08-29T01:30:30.908Z,8.4
2022-08-29T01:32:31.416Z,8
2022-08-29T01:34:32.252Z,8
2022-08-29T01:36:37.273Z,8.2
2022-08-29T01:38:32.360Z,7.8
2022-08-29T01:40:34.675Z,7.5
2022-08-29T01:42:35.452Z,7.9
2022-08-29T01:44:33.320Z,7.6
2022-08-29T01:46:34.406Z,7.6
2022-08-29T01:48:37.307Z,7.6
2022-08-29T01:50:34.375Z,7.6
2022-08-29T01:52:34.952Z,7.6
2022-08-29T01:54:35.238Z,7.2
2022-08-29T01:56:38.526Z,7.2
2022-08-29T01:58:35.731Z,8
2022-08-29T02:00:36.593Z,8.3
2022-08-29T02:02:38.231Z,8.3
2022-08-29T02:04:37.283Z,7.6
2022-08-29T02:06:37.662Z,7.7
2022-08-29T02:08:40.225Z,7.2
2022-08-29T02:10:37.897Z,7.4
2022-08-29T02:12:38.283Z,7.9
2022-08-29T02:14:38.981Z,7.4
2022-08-29T02:16:39.162Z,7.6
2022-08-29T02:18:39.754Z,7.8
2022-08-29T02:20:39.613Z,8
2022-08-29T02:22:40.734Z,8
2022-08-29T02:24:40.564Z,7.6
2022-08-29T02:26:40.745Z,7.8
2022-08-29T02:28:41.058Z,7
2022-08-29T02:30:43.841Z,7.6
2022-08-29T02:32:41.745Z,7.8
2022-08-29T02:34:44.770Z,8.2
2022-08-29T02:36:43.030Z,7.9
2022-08-29T02:38:42.819Z,8.3
2022-08-29T02:40:43.666Z,7.7
2022-08-29T02:42:43.450Z,8.1
2022-08-29T02:44:43.979Z,8.3
2022-08-29T02:46:44.353Z,8.1
2022-08-29T02:48:49.304Z,8.4
2022-08-29T02:50:47.769Z,8.7
2022-08-29T02:52:45.806Z,8.1
2022-08-29T02:54:45.450Z,8.4
2022-08-29T02:56:45.824Z,8
2022-08-29T02:58:46.597Z,8.1
2022-08-29T03:00:47.101Z,8.3
2022-08-29T03:02:46.889Z,8.2
2022-08-29T03:04:47.251Z,8.4
2022-08-29T03:06:47.616Z,24.4
2022-08-29T03:08:48.067Z,56.4
2022-08-29T03:10:48.268Z,14.3
2022-08-29T03:12:49.241Z,9.6
2022-08-29T03:14:49.234Z,9.9
2022-08-29T03:16:49.428Z,8.4
2022-08-29T03:18:50.075Z,8.6
2022-08-29T03:20:50.166Z,8.9
2022-08-29T03:22:52.294Z,8.4
2022-08-29T03:24:51.518Z,8.4
2022-08-29T03:26:56.224Z,8.3
2022-08-29T03:28:51.518Z,9.2
2022-08-29T03:30:51.853Z,9.3
2022-08-29T03:32:52.788Z,8.9
2022-08-29T03:34:53.104Z,8.3
2022-08-29T03:36:53.006Z,7.6
2022-08-29T03:38:53.342Z,7.8
2022-08-29T03:40:53.682Z,8
2022-08-29T03:42:54.528Z,7.6
2022-08-29T03:44:54.627Z,8.8
2022-08-29T03:46:55.071Z,8.6
2022-08-29T03:48:55.173Z,8.1
2022-08-29T03:50:56.518Z,8.4
2022-08-29T03:52:56.135Z,8.4
2022-08-29T03:54:56.317Z,8.5
2022-08-29T03:56:56.785Z,8.3
2022-08-29T03:58:57.832Z,8.3
2022-08-29T04:00:57.391Z,8.9
2022-08-29T04:02:58.184Z,9
2022-08-29T04:04:58.189Z,8.7
2022-08-29T04:06:58.599Z,8.9
2022-08-29T04:09:00.180Z,8.6
2022-08-29T04:10:59.451Z,9.1
2022-08-29T04:13:00.282Z,8.7
2022-08-29T04:15:00.159Z,9.2
2022-08-29T04:17:00.613Z,8.9
2022-08-29T04:19:01.032Z,8.5
2022-08-29T04:21:02.342Z,8.9
2022-08-29T04:23:02.006Z,9.3
2022-08-29T04:25:03.984Z,9
2022-08-29T04:27:03.242Z,8.7
2022-08-29T04:29:04.338Z,9.3
2022-08-29T04:31:04.254Z,9.3
2022-08-29T04:33:04.646Z,9.4
2022-08-29T04:35:05.519Z,9.9
2022-08-29T04:37:05.563Z,9.6
2022-08-29T04:39:06.102Z,9
2022-08-29T04:41:08.443Z,9.7
2022-08-29T04:43:07.524Z,9.5
2022-08-29T04:45:10.778Z,9.6
2022-08-29T04:47:08.218Z,9.7
2022-08-29T04:49:08.753Z,9.3
2022-08-29T04:51:09.790Z,10.2
2022-08-29T04:53:10.084Z,10.4
2022-08-29T04:55:11.457Z,9.6
2022-08-29T04:57:11.323Z,9.5
2022-08-29T04:59:11.766Z,9.8
2022-08-29T05:01:14.319Z,9.2
2022-08-29T05:03:13.002Z,9.9
2022-08-29T05:05:14.742Z,10
2022-08-29T05:07:14.120Z,12.4
2022-08-29T05:09:14.773Z,11
2022-08-29T05:11:22.911Z,10.1
2022-08-29T05:13:16.451Z,10.5
2022-08-29T05:15:17.204Z,9.7
2022-08-29T05:17:17.021Z,9.8
2022-08-29T05:19:17.595Z,10
2022-08-29T05:21:23.145Z,10.1
2022-08-29T05:23:18.813Z,10.7
2022-08-29T05:25:19.754Z,10.6
2022-08-29T05:27:21.091Z,9.8
2022-08-29T05:29:20.430Z,9.8
2022-08-29T05:31:21.126Z,10
2022-08-29T05:33:21.925Z,10.1
2022-08-29T05:35:22.202Z,11.6
2022-08-29T05:37:22.937Z,11.1
2022-08-29T05:39:23.247Z,10.6
2022-08-29T05:41:23.687Z,10.4
2022-08-29T05:43:24.307Z,10.2
2022-08-29T05:45:24.768Z,10.2
2022-08-29T05:47:25.355Z,8.9
2022-08-29T05:49:26.341Z,8.9
2022-08-29T05:51:26.358Z,9.3
2022-08-29T05:53:27.399Z,8.9
2022-08-29T05:55:27.393Z,9.3
2022-08-29T05:57:27.901Z,8.8
2022-08-29T05:59:28.492Z,9.6
2022-08-29T06:01:32.704Z,9.7
2022-08-29T06:03:29.632Z,9.6
2022-08-29T06:05:29.943Z,8.8
2022-08-29T06:07:30.717Z,9.4
2022-08-29T06:09:31.211Z,9.4
2022-08-29T06:11:32.540Z,9.4
2022-08-29T06:13:31.933Z,9.7
2022-08-29T06:15:32.505Z,9.7
2022-08-29T06:17:33.905Z,10.2
2022-08-29T06:19:33.657Z,9.8
2022-08-29T06:21:33.993Z,11.2
2022-08-29T06:23:34.686Z,10.9
2022-08-29T06:25:39.672Z,13.9
2022-08-29T06:27:35.434Z,14.7
2022-08-29T06:29:43.224Z,14.6
2022-08-29T06:31:36.637Z,12.8
2022-08-29T06:33:37.192Z,10.8
2022-08-29T06:35:37.664Z,10.2
2022-08-29T06:37:40.073Z,10.1
2022-08-29T06:39:38.760Z,9.8
2022-08-29T06:41:40.323Z,9.4
2022-08-29T06:43:40.327Z,10.1
2022-08-29T06:45:41.193Z,9.7
2022-08-29T06:47:40.930Z,10.3
2022-08-29T06:49:41.458Z,10.5
2022-08-29T06:51:44.963Z,10.4
2022-08-29T06:53:43.242Z,10.2
2022-08-29T06:55:43.321Z,9.9
2022-08-29T06:57:43.832Z,9.3
2022-08-29T06:59:44.409Z,8
2022-08-29T07:01:45.609Z,8.6
2022-08-29T07:03:46.339Z,8.2
2022-08-29T07:05:51.014Z,8
2022-08-29T07:07:46.766Z,8
2022-08-29T07:09:47.412Z,8
2022-08-29T07:11:47.925Z,7.8
2022-08-29T07:13:48.509Z,7.9
2022-08-29T07:15:49.245Z,7.8
2022-08-29T07:17:50.086Z,7.6
2022-08-29T07:19:50.385Z,7.5
2022-08-29T07:21:50.849Z,7.3
2022-08-29T07:23:53.927Z,7.5
2022-08-29T07:25:52.080Z,7.7
2022-08-29T07:27:53.513Z,8
2022-08-29T07:29:53.266Z,7.8
2022-08-29T07:31:53.847Z,7.5
2022-08-29T07:34:02.038Z,7.8
2022-08-29T07:35:54.943Z,7.4
2022-08-29T07:37:56.490Z,8.2
2022-08-29T07:39:56.184Z,7.6
2022-08-29T07:41:57.468Z,7.8
2022-08-29T07:43:57.385Z,7.7
2022-08-29T07:45:57.858Z,7.6
2022-08-29T07:47:58.435Z,8
2022-08-29T07:49:59.043Z,8
2022-08-29T07:51:59.713Z,7.7
2022-08-29T07:54:00.456Z,8.2
2022-08-29T07:56:05.173Z,7.6
2022-08-29T07:58:01.376Z,8.1
2022-08-29T08:00:12.759Z,8.2
2022-08-29T08:02:02.750Z,7.7
2022-08-29T08:04:03.860Z,8.8
2022-08-29T08:06:06.985Z,8.6
2022-08-29T08:08:11.205Z,8.1
2022-08-29T08:10:05.790Z,8.3
2022-08-29T08:12:08.403Z,8
2022-08-29T08:14:06.677Z,8.6
2022-08-29T08:16:10.681Z,7.8
2022-08-29T08:18:07.350Z,7.9
2022-08-29T08:20:12.395Z,8.6
2022-08-29T08:22:08.387Z,9.2
2022-08-29T08:24:09.825Z,8.4
2022-08-29T08:26:11.614Z,7.9
2022-08-29T08:28:12.810Z,7.6
2022-08-29T08:30:11.757Z,7.9
2022-08-29T08:32:11.307Z,8.4
2022-08-29T08:34:11.951Z,8.3
2022-08-29T08:36:15.047Z,8.5
2022-08-29T08:38:13.625Z,8.7
2022-08-29T08:40:20.674Z,8.2
2022-08-29T08:42:24.908Z,9
2022-08-29T08:44:37.017Z,8.1
2022-08-29T08:46:16.270Z,8.5
2022-08-29T08:48:20.087Z,9.3
2022-08-29T08:50:23.459Z,8.8
2022-08-29T08:52:21.883Z,9.4
2022-08-29T08:54:23.714Z,9
2022-08-29T08:56:25.300Z,9.4
2022-08-29T08:58:29.900Z,9.9
2022-08-29T09:00:19.936Z,9.5
2022-08-29T09:02:32.722Z,8.8
2022-08-29T09:04:36.359Z,9.4
2022-08-29T09:06:32.606Z,9.8
2022-08-29T09:08:30.720Z,9.8
2022-08-29T09:10:33.962Z,9.4
2022-08-29T09:12:34.416Z,10
2022-08-29T09:14:38.331Z,10.7
2022-08-29T09:19:35.397Z,10.1
2022-08-29T09:20:28.233Z,9.8
2022-08-29T09:24:35.790Z,9.8
2022-08-29T09:26:27.582Z,10.2
2022-08-29T09:28:31.253Z,10.6
2022-08-29T09:30:31.353Z,10.9
2022-08-29T09:32:29.433Z,11.3
2022-08-29T09:34:50.809Z,10.9
2022-08-29T09:36:38.498Z,10.4
2022-08-29T09:38:31.075Z,10.9
2022-08-29T09:40:48.720Z,11.5
2022-08-29T09:42:36.124Z,11
2022-08-29T09:44:35.243Z,11.6
2022-08-29T09:46:33.403Z,11.6
2022-08-29T09:48:35.802Z,11.5
2022-08-29T09:50:34.672Z,10.7
2022-08-29T09:52:38.139Z,11.5
2022-08-29T09:54:35.882Z,11.6
2022-08-29T09:56:38.588Z,11.9
2022-08-29T09:58:40.434Z,11.4
2022-08-29T10:00:40.604Z,11.7
2022-08-29T10:02:46.807Z,12
2022-08-29T10:04:41.411Z,12
2022-08-29T10:06:44.305Z,11
2022-08-29T10:08:41.747Z,11.9
2022-08-29T10:10:51.356Z,11.5
2022-08-29T10:13:00.477Z,11.2
2022-08-29T10:14:50.276Z,11.3
2022-08-29T10:16:50.481Z,11.6
2022-08-29T10:18:47.604Z,11.3
2022-08-29T10:20:54.673Z,11.6
2022-08-29T10:22:53.091Z,11.8
2022-08-29T10:24:56.606Z,11.6
2022-08-29T10:26:54.288Z,11.5
2022-08-29T10:28:55.211Z,12.3
2022-08-29T10:30:56.779Z,12.2
2022-08-29T10:33:01.867Z,12.1
2022-08-29T10:35:02.540Z,12.5
2022-08-29T10:36:56.128Z,11.2
2022-08-29T10:38:56.607Z,11.8
2022-08-29T10:40:55.661Z,11.4
2022-08-29T10:42:55.630Z,10.9
2022-08-29T10:45:02.475Z,11.8
2022-08-29T10:47:02.320Z,12.3
2022-08-29T10:49:01.341Z,13
2022-08-29T10:51:04.091Z,11.9
2022-08-29T10:53:01.777Z,12.3
2022-08-29T10:55:02.682Z,12.4
2022-08-29T10:56:55.112Z,11.8
2022-08-29T10:59:03.245Z,12.2
2022-08-29T11:01:04.319Z,12.6
2022-08-29T11:03:07.215Z,12.4
2022-08-29T11:05:01.931Z,12.1
2022-08-29T11:07:03.274Z,11.8
2022-08-29T11:09:04.885Z,11.4
2022-08-29T11:10:58.617Z,11.2
2022-08-29T11:13:05.991Z,10.7
2022-08-29T11:15:09.056Z,10.8
2022-08-29T11:17:03.562Z,9.9
2022-08-29T11:19:07.991Z,9.5
2022-08-29T11:21:12.505Z,9.1
2022-08-29T11:23:07.887Z,9.1
2022-08-29T11:25:10.594Z,9.4
2022-08-29T11:27:10.650Z,9.4
2022-08-29T11:29:14.141Z,9.3
2022-08-29T11:31:12.611Z,8.7
2022-08-29T11:33:13.329Z,7.8
2022-08-29T11:35:11.539Z,7.8
2022-08-29T11:37:25.725Z,6.7
2022-08-29T11:39:27.438Z,6.1
2022-08-29T11:41:28.488Z,6.4
2022-08-29T11:43:13.825Z,6.1
2022-08-29T11:45:13.758Z,5.5
2022-08-29T11:47:33.910Z,10.1
2022-08-29T11:49:42.193Z,4.7
2022-08-29T11:51:28.626Z,3.5
2022-08-29T11:53:23.685Z,5.3
2022-08-29T11:55:24.804Z,3.2
2022-08-29T11:57:41.512Z,3.2
2022-08-29T11:59:42.464Z,2.7
2022-08-29T12:01:55.179Z,2.7
2022-08-29T12:03:45.071Z,2.6
2022-08-29T12:05:43.952Z,2.8
2022-08-29T12:07:15.432Z,3.1
2022-08-29T12:09:32.660Z,3.5
2022-08-29T12:11:16.269Z,3.6
2022-08-29T12:13:54.371Z,3.9
2022-08-29T12:15:46.867Z,2.8
2022-08-29T12:18:01.044Z,3.4
2022-08-29T12:19:47.912Z,3.4
2022-08-29T12:21:44.474Z,2.6
2022-08-29T12:23:30.032Z,2.9
2022-08-29T12:25:41.311Z,3.2
2022-08-29T12:27:23.873Z,3.1
2022-08-29T12:29:25.350Z,3.5
2022-08-29T12:31:40.307Z,2.9
2022-08-29T12:33:33.381Z,3.3
2022-08-29T12:35:50.649Z,2.9
2022-08-29T12:37:36.841Z,6.8
2022-08-29T12:39:44.205Z,3.7
2022-08-29T12:41:39.211Z,3.7
2022-08-29T12:43:33.182Z,2.8
2022-08-29T12:45:28.351Z,3.4
2022-08-29T12:47:31.642Z,3.3
2022-08-29T12:49:39.206Z,3.4
2022-08-29T12:51:33.523Z,3.3
2022-08-29T12:53:30.736Z,3.2
2022-08-29T12:55:33.344Z,2.9
2022-08-29T12:57:34.510Z,3.3
2022-08-29T12:59:30.318Z,3.4
2022-08-29T13:01:34.107Z,3.2
2022-08-29T13:03:31.398Z,3.1
2022-08-29T13:05:35.069Z,3.7
2022-08-29T13:07:32.421Z,6.1
2022-08-29T13:09:36.925Z,3.3
2022-08-29T13:11:33.689Z,4
2022-08-29T13:13:35.818Z,4.3
2022-08-29T13:15:35.020Z,3.8
2022-08-29T13:17:37.562Z,4
2022-08-29T13:19:35.894Z,3.5
2022-08-29T13:21:36.765Z,3.6
2022-08-29T13:23:39.550Z,4
2022-08-29T13:25:45.076Z,3.8
2022-08-29T13:27:38.312Z,3.7
2022-08-29T13:29:41.310Z,3.7
2022-08-29T13:31:39.759Z,3.8
2022-08-29T13:34:09.441Z,5.4
2022-08-29T13:35:40.686Z,4.2
2022-08-29T13:37:43.413Z,3.4
2022-08-29T13:39:44.645Z,3.5
2022-08-29T13:41:43.352Z,3.8
2022-08-29T13:43:42.816Z,3.6
2022-08-29T13:45:43.420Z,4.1
2022-08-29T13:47:57.731Z,3.6
2022-08-29T13:49:44.727Z,3.5
2022-08-29T13:51:45.181Z,3.8
2022-08-29T13:53:45.876Z,4.6
2022-08-29T13:55:46.407Z,4.1
2022-08-29T13:57:50.032Z,3.8
2022-08-29T13:59:47.860Z,3.5
2022-08-29T14:03:48.762Z,3.7
2022-08-29T14:05:49.391Z,4
2022-08-29T14:07:49.468Z,3.4
2022-08-29T14:09:50.597Z,3.7
2022-08-29T14:11:50.592Z,3.7
2022-08-29T14:13:51.545Z,3.4
2022-08-29T14:15:52.397Z,3.8
2022-08-29T14:17:52.234Z,4
2022-08-29T14:19:52.783Z,3.3
2022-08-29T14:21:53.889Z,3.8
2022-08-29T14:23:53.840Z,3.8
2022-08-29T14:25:54.681Z,4.3
2022-08-29T14:27:55.072Z,4.5
2022-08-29T14:29:55.554Z,4.6
2022-08-29T14:31:56.109Z,4.2
2022-08-29T14:33:56.960Z,4.5
2022-08-29T14:35:57.630Z,4.5
2022-08-29T14:37:58.865Z,4.9
2022-08-29T14:39:58.752Z,4.6
2022-08-29T14:41:58.869Z,4
2022-08-29T14:43:59.668Z,3.9
2022-08-29T14:46:00.042Z,4.4
2022-08-29T14:48:00.747Z,4.5
2022-08-29T14:50:01.399Z,4
2022-08-29T14:52:02.168Z,3.9
2022-08-29T14:54:02.375Z,3.9
2022-08-29T14:56:03.265Z,3.9
2022-08-29T14:58:04.076Z,4
2022-08-29T15:00:06.180Z,4.1
2022-08-29T15:02:04.887Z,4.1
2022-08-29T15:04:04.883Z,3.5
2022-08-29T15:06:05.765Z,3.4
2022-08-29T15:08:06.858Z,5.5
2022-08-29T15:10:08.027Z,3.5
2022-08-29T15:12:07.422Z,3.6
2022-08-29T15:14:07.585Z,3.6
2022-08-29T15:16:08.743Z,3.8
2022-08-29T15:18:08.730Z,3.6
2022-08-29T15:22:10.403Z,3.9
2022-08-29T15:24:10.280Z,4
2022-08-29T15:26:11.134Z,4.1
2022-08-29T15:28:11.568Z,4.2
2022-08-29T15:30:16.874Z,4.9
2022-08-29T15:32:13.088Z,4.5
2022-08-29T15:34:13.375Z,4.6
2022-08-29T15:36:13.519Z,4.3
2022-08-29T15:38:14.241Z,4.3
2022-08-29T15:40:15.122Z,4
2022-08-29T15:42:17.458Z,4.1
2022-08-29T15:44:15.795Z,4.6
2022-08-29T15:46:16.201Z,4.5
2022-08-29T15:48:17.109Z,4
2022-08-29T15:50:17.075Z,4.6
2022-08-29T15:52:17.554Z,4.9
2022-08-29T15:54:18.480Z,4.7
2022-08-29T15:56:18.652Z,4.2
2022-08-29T15:58:19.091Z,4.7
2022-08-29T16:00:29.819Z,4.2
2022-08-29T16:02:20.202Z,4.4
2022-08-29T16:04:23.118Z,3.9
2022-08-29T16:06:21.172Z,4
2022-08-29T16:08:22.463Z,4.1
2022-08-29T16:10:22.206Z,4.4
2022-08-29T16:12:22.832Z,4.2
2022-08-29T16:16:24.610Z,5.3
2022-08-29T16:18:24.224Z,4.5
2022-08-29T16:20:25.030Z,5
2022-08-29T16:22:25.688Z,4.9
2022-08-29T16:24:26.652Z,5.1
2022-08-29T16:26:26.768Z,5.3
2022-08-29T16:28:26.749Z,4.6
2022-08-29T16:30:28.202Z,5
2022-08-29T16:32:27.684Z,5.2
2022-08-29T16:34:28.502Z,5.5
2022-08-29T16:36:28.767Z,4.9
2022-08-29T16:38:29.196Z,5.3
2022-08-29T16:40:30.763Z,5.9
2022-08-29T16:42:30.814Z,7.3
2022-08-29T16:44:30.824Z,7.1
2022-08-29T16:46:31.457Z,13
2022-08-29T16:48:32.068Z,11.6
2022-08-29T16:50:32.142Z,10.1
2022-08-29T16:52:32.797Z,11.1
2022-08-29T16:54:33.173Z,10.1
2022-08-29T16:56:33.455Z,11.3
2022-08-29T16:58:34.025Z,10.8
2022-08-29T17:00:34.510Z,10.5
2022-08-29T17:02:34.927Z,10.6
2022-08-29T17:04:36.796Z,9.6
2022-08-29T17:06:36.305Z,9.7
2022-08-29T17:08:36.348Z,9.2
2022-08-29T17:10:36.677Z,9.2
2022-08-29T17:12:37.145Z,8.9
2022-08-29T17:14:37.684Z,8.2
2022-08-29T17:16:39.465Z,9.8
2022-08-29T17:18:39.241Z,8.7
2022-08-29T17:20:39.105Z,8.7
2022-08-29T17:22:39.554Z,8.5
2022-08-29T17:24:39.942Z,8.8
2022-08-29T17:26:43.802Z,8.3
2022-08-29T17:28:41.763Z,8.8
2022-08-29T17:30:41.327Z,8.8
2022-08-29T17:32:42.033Z,8.7
2022-08-29T17:34:42.567Z,8.6
2022-08-29T17:36:42.981Z,7.5
2022-08-29T17:38:45.221Z,8.1
2022-08-29T17:40:43.690Z,7.8
2022-08-29T17:42:44.233Z,8.3
2022-08-29T17:44:44.432Z,8.1
2022-08-29T17:46:44.958Z,8.9
2022-08-29T17:48:45.284Z,8.3
2022-08-29T17:50:45.909Z,8.4
2022-08-29T17:52:46.046Z,8.1
2022-08-29T17:54:46.895Z,8.5
2022-08-29T17:56:49.391Z,8.5
2022-08-29T17:58:47.960Z,7.8
2022-08-29T18:00:48.078Z,7.3
2022-08-29T18:02:48.543Z,7.6
2022-08-29T18:04:48.794Z,7.2
2022-08-29T18:06:49.546Z,6.9
2022-08-29T18:08:49.623Z,6.9
2022-08-29T18:10:50.022Z,6.5
2022-08-29T18:12:50.498Z,6.4
2022-08-29T18:14:50.976Z,6.1
2022-08-29T18:16:52.193Z,6.8
2022-08-29T18:18:51.852Z,6.7
2022-08-29T18:20:52.175Z,7.1
2022-08-29T18:22:52.611Z,6.9
2022-08-29T18:24:53.003Z,6.9
2022-08-29T18:26:53.725Z,7.4
2022-08-29T18:28:54.702Z,6.3
2022-08-29T18:30:54.530Z,6.5
2022-08-29T18:32:54.673Z,7.4
2022-08-29T18:35:00.103Z,6.8
2022-08-29T18:36:55.554Z,6.1
2022-08-29T18:38:56.262Z,5.9
2022-08-29T18:40:56.288Z,6.3
2022-08-29T18:42:57.156Z,6.8
2022-08-29T18:44:57.056Z,6.9
2022-08-29T18:46:57.513Z,7.9
2022-08-29T18:48:58.126Z,7.5
2022-08-29T18:50:58.929Z,7.2
2022-08-29T18:52:59.152Z,7
2022-08-29T18:54:59.057Z,6.5
2022-08-29T18:56:59.411Z,7.3
2022-08-29T18:58:59.821Z,6.7
2022-08-29T19:01:09.737Z,8.2
2022-08-29T19:03:02.943Z,7.2
2022-08-29T19:05:01.063Z,7.7
2022-08-29T19:07:01.404Z,7.6
2022-08-29T19:09:01.819Z,7.7
2022-08-29T19:11:02.856Z,8.6
2022-08-29T19:13:03.044Z,8.7
2022-08-29T19:15:03.589Z,8.2
2022-08-29T19:17:04.134Z,8
2022-08-29T19:19:03.830Z,6.8
2022-08-29T19:21:04.252Z,6.8
2022-08-29T19:23:05.077Z,6.7
2022-08-29T19:25:06.213Z,6.5
2022-08-29T19:27:05.403Z,7.5
2022-08-29T19:29:08.474Z,6.2
2022-08-29T19:31:06.529Z,6
2022-08-29T19:33:07.170Z,6.4
2022-08-29T19:35:08.198Z,7.5
2022-08-29T19:37:07.284Z,7.1
2022-08-29T19:39:07.539Z,6.7
2022-08-29T19:41:08.663Z,6.5
2022-08-29T19:43:13.463Z,6.4
2022-08-29T19:45:10.425Z,6
2022-08-29T19:47:09.023Z,6.2
2022-08-29T19:49:09.332Z,6.7
2022-08-29T19:51:11.110Z,6.3
2022-08-29T19:53:10.152Z,6.2
2022-08-29T19:55:12.853Z,7
2022-08-29T19:57:14.585Z,7.2
2022-08-29T19:59:11.155Z,7.1
2022-08-29T20:01:11.650Z,7
2022-08-29T20:03:11.982Z,7
2022-08-29T20:05:13.761Z,7.3
2022-08-29T20:07:12.667Z,7.5
2022-08-29T20:09:13.095Z,7.3
2022-08-29T20:11:16.084Z,8.5
2022-08-29T20:13:13.828Z,7
2022-08-29T20:15:14.197Z,6.9
2022-08-29T20:17:14.461Z,7
2022-08-29T20:19:14.973Z,7.6
2022-08-29T20:21:15.188Z,6.5
2022-08-29T20:23:15.747Z,6.8
2022-08-29T20:25:17.389Z,6.8
2022-08-29T20:27:16.493Z,7.5
2022-08-29T20:29:16.974Z,7.3
2022-08-29T20:31:17.071Z,7.1
2022-08-29T20:33:17.674Z,7.2
2022-08-29T20:35:18.545Z,7.3
2022-08-29T20:37:18.233Z,6.7
2022-08-29T20:39:20.711Z,7.7
2022-08-29T20:41:21.221Z,6.8
2022-08-29T20:43:19.751Z,7.1
2022-08-29T20:45:19.587Z,6.7
2022-08-29T20:47:21.005Z,6.8
2022-08-29T20:49:22.037Z,7
2022-08-29T20:51:20.523Z,7
2022-08-29T20:53:31.823Z,7.3
2022-08-29T20:55:21.676Z,6.8
2022-08-29T20:57:21.625Z,6.6
2022-08-29T20:59:26.276Z,6.9
2022-08-29T21:01:22.483Z,6.6
2022-08-29T21:03:22.830Z,6.6
2022-08-29T21:05:22.980Z,6.3
2022-08-29T21:07:23.348Z,6.7
2022-08-29T21:09:24.207Z,7.3
2022-08-29T21:11:24.174Z,6.4
2022-08-29T21:13:24.281Z,7.1
2022-08-29T21:15:25.001Z,7.1
2022-08-29T21:17:24.973Z,7
2022-08-29T21:19:27.185Z,6.3
2022-08-29T21:21:25.685Z,6.9
2022-08-29T21:23:27.016Z,6.6
2022-08-29T21:25:26.439Z,7
2022-08-29T21:27:26.904Z,6.3
2022-08-29T21:29:27.125Z,6.7
2022-08-29T21:31:27.852Z,7.2
2022-08-29T21:33:27.779Z,6.9
2022-08-29T21:35:28.573Z,7.3
2022-08-29T21:37:28.434Z,7.5
2022-08-29T21:39:29.299Z,6.8
2022-08-29T21:41:30.753Z,6.9
2022-08-29T21:43:29.676Z,6.9
2022-08-29T21:45:33.280Z,7.1
2022-08-29T21:47:30.149Z,6.6
2022-08-29T21:49:30.500Z,6.9
2022-08-29T21:51:32.025Z,6.6
2022-08-29T21:53:31.158Z,6.8
2022-08-29T21:55:31.726Z,6.5
2022-08-29T21:57:31.810Z,7.2
2022-08-29T21:59:32.086Z,6.7
2022-08-29T22:01:34.156Z,6.9
2022-08-29T22:03:32.738Z,6.7
2022-08-29T22:05:33.607Z,7.1
2022-08-29T22:07:33.428Z,6.6
2022-08-29T22:09:34.496Z,7
2022-08-29T22:11:37.751Z,7.2
2022-08-29T22:13:34.420Z,7.3
2022-08-29T22:15:34.822Z,7.2
2022-08-29T22:17:35.127Z,6.6
2022-08-29T22:19:35.461Z,7.3
2022-08-29T22:21:38.780Z,6.7
2022-08-29T22:23:36.111Z,6.8
2022-08-29T22:25:36.571Z,7.1
2022-08-29T22:27:36.933Z,6.9
2022-08-29T22:29:37.533Z,7.6
2022-08-29T22:31:37.478Z,7.3
2022-08-29T22:33:38.023Z,7
2022-08-29T22:35:38.221Z,7.1
2022-08-29T22:37:38.603Z,7.1
2022-08-29T22:39:38.786Z,6.8
2022-08-29T22:41:39.050Z,6.7
2022-08-29T22:43:39.685Z,7.1
2022-08-29T22:45:39.863Z,6.8
2022-08-29T22:47:42.268Z,6.7
2022-08-29T22:49:40.278Z,6.8
2022-08-29T22:51:40.642Z,7
2022-08-29T22:53:41.406Z,6.3
2022-08-29T22:55:41.774Z,6.8
2022-08-29T22:57:42.114Z,7
2022-08-29T22:59:43.143Z,6.7
2022-08-29T23:01:44.017Z,6.9
2022-08-29T23:03:42.526Z,6.9
2022-08-29T23:05:42.888Z,6.8
2022-08-29T23:07:43.349Z,6.8
2022-08-29T23:09:44.252Z,6.6
2022-08-29T23:11:43.811Z,6.6
2022-08-29T23:13:45.333Z,6.3
2022-08-29T23:15:44.588Z,6.5
2022-08-29T23:17:44.781Z,6.9
2022-08-29T23:19:45.760Z,6.8
2022-08-29T23:21:45.457Z,7
2022-08-29T23:23:45.797Z,6.4
2022-08-29T23:25:46.005Z,6.2
2022-08-29T23:27:46.529Z,6.6
2022-08-29T23:29:49.573Z,6.6
2022-08-29T23:31:46.964Z,6.1
2022-08-29T23:33:47.390Z,6.5
2022-08-29T23:35:47.579Z,6.3
2022-08-29T23:37:47.893Z,6.7
2022-08-29T23:39:48.257Z,5.9
2022-08-29T23:41:48.715Z,6.3
2022-08-29T23:43:49.120Z,6.9
2022-08-29T23:45:49.756Z,6.3
2022-08-29T23:47:49.950Z,6.2
2022-08-29T23:49:49.844Z,6.6
2022-08-29T23:51:50.510Z,6.3
2022-08-29T23:53:50.358Z,7.2
2022-08-29T23:55:50.992Z,6.2
2022-08-29T23:57:51.046Z,6.6
2022-08-29T23:59:51.301Z,6.6
